Rome, Italy
Current Conditions -  °F | °C
As of 12:45 PM on Wednesday 28 Jan 2015 (Local Time) from LIRA Reporting Station
Clear Clear  
Wind Chill: 42°   Ceiling: Unl
Heat Index: 48°   Visibility: 6mi
Dew Point: 28°   Wind: 18mph
Humidity: 46%   Direction: 340°NNW
Pressure: 29.85"   Gusts: NA
Location:  41.9°N, 12.48°E
Report Text: LIRA 281145Z 34016KT CAVOK 09/M02 Q1011
Loading
Personal Weather Stations






























Interactive Weather Map New forecast layout! Learn more

10-Day Weather Forecast

Advertisements
Track Severe Weather on mobile